Lengby, Minnesota
Current Conditions -  °F | °C
As of 10:55 PM on Friday 28 Nov 2014 (Local Time) from KFSE Reporting Station
Overcast Overcast  
Wind Chill:   Ceiling: 9000
Heat Index: 18°   Visibility: 10mi
Dew Point: 12°   Wind: 9mph
Humidity: 79%   Direction: 170°S
Pressure: 29.59"   Gusts: NA
Location:  47.52°N, 95.64°W
Report Text: KFSE 290455Z AUTO 17008KT 10SM BKN090 OVC110 M08/M11 A2959 RMK AO2
Loading
Personal Weather Stations






























Interactive Weather Map New forecast layout! Learn more

10-Day Weather Forecast

Advertisements
Track Severe Weather on mobile